Latest Weather Observations for Biloela

IDQ60801

Issued at 10:31 am EST Thursday 26 May 2016 (issued every 30 minutes, with the page automatically refreshed every 10 minutes)

About weather observations | Map of weather stations | Latest weather observations for QLD | Other Formats
Station Details ID: 039089 Name: THANGOOL AIRPORT Lat: -24.49 Lon: 150.57 Height: 193.1 m
Data from the previous 72 hours. | See also: Recent months at Biloela
Date/Time
EST
Temp
°C
App
Temp
°C
Dew
Point
Rel
Hum
%
Delta-T
°C
Wind Press
QNH
hPa
Press
MSL
hPa
Rain
since 9 am
mm
Dir
 
Spd
km/h
Gust
km/h
Spd
kts
Gust
kts
26/10:30am 24.2 23.3 15.9 59 5.1 NW 15 22 8 12 1017.1 - 0.0
26/10:00am 23.1 21.8 15.9 64 4.4 NW 17 24 9 13 1017.5 - 0.0
26/09:30am 22.0 22.1 15.4 66 4.0 NW 9 15 5 8 1017.7 - 0.0
26/09:22am 21.4 21.8 15.3 68 3.7 W 7 15 4 8 1017.7 - 0.0
26/09:00am 10.6 7.8 5.2 69 2.5 E 9 6 5 3 1017.6 1016.5 0.0
26/08:30am 16.0 15.2 9.7 66 3.3 SSE 4 9 2 5 1017.9 - 0.0
26/08:02am 14.2 13.5 7.0 62 3.5 CALM 0 6 0 3 1017.6 - 0.0
26/08:00am 13.9 12.8 6.7 62 3.5 SSE 2 6 1 3 1017.6 - 0.0
26/07:30am 12.0 9.8 5.4 64 3.1 ESE 6 7 3 4 1017.3 - 0.0
26/07:00am 9.8 7.0 5.0 72 2.2 E 9 11 5 6 1017.2 - 0.0
26/06:30am 9.0 6.5 3.8 70 2.3 ESE 6 9 3 5 1017.1 - 0.0
26/06:00am 10.6 7.8 5.2 69 2.5 E 9 11 5 6 1016.9 1016.5 0.0
26/05:30am 10.2 7.3 4.6 68 2.5 E 9 11 5 6 1016.9 - 0.0
26/05:00am 9.6 6.7 4.4 70 2.3 E 9 9 5 5 1016.7 - 0.0
26/04:30am 9.0 6.4 3.0 66 2.6 ESE 6 7 3 4 1016.7 - 0.0
26/04:00am 10.0 7.0 4.0 66 2.7 E 9 11 5 6 1016.6 - 0.0
26/03:30am 9.7 6.6 3.4 65 2.8 E 9 9 5 5 1016.7 - 0.0
26/03:00am 9.3 6.5 3.1 65 2.7 E 7 9 4 5 1016.8 1016.4 0.0
26/02:30am 8.8 5.9 2.8 66 2.6 E 7 9 4 5 1016.9 - 0.0
26/02:00am 8.7 5.9 2.9 67 2.5 ESE 7 9 4 5 1017.1 - 0.0
26/01:30am 8.8 6.5 3.0 67 2.5 ESE 4 9 2 5 1017.1 - 0.0
26/01:00am 9.6 8.1 3.1 64 2.8 CALM 0 0 0 0 1017.3 - 0.0
26/12:30am 9.6 8.2 3.4 65 2.7 CALM 0 0 0 0 1017.4 - 0.0
26/12:00am 9.7 8.1 2.6 61 3.1 CALM 0 0 0 0 1017.3 1016.9 0.0
 
Date/Time
EST
Temp
°C
App
Temp
°C
Dew
Point
Rel
Hum
%
Delta-T
°C
Wind Press
QNH
hPa
Press
MSL
hPa
Rain
since 9 am
mm
Dir
 
Spd
km/h
Gust
km/h
Spd
kts
Gust
kts
25/11:30pm 10.0 7.9 1.9 57 3.4 ESE 2 7 1 4 1017.4 - 0.0
25/11:00pm 11.5 8.5 2.3 53 4.0 E 7 9 4 5 1017.5 - 0.0
25/10:30pm 13.4 10.2 2.9 49 4.7 ENE 9 11 5 6 1017.6 - 0.0
25/10:00pm 12.6 9.7 2.7 51 4.4 E 7 9 4 5 1017.6 - 0.0
25/09:30pm 13.3 10.9 2.2 47 4.9 ESE 4 7 2 4 1017.4 - 0.0
25/09:00pm 14.7 11.4 2.6 44 5.4 ESE 9 11 5 6 1017.2 1016.8 0.0
25/08:30pm 15.0 11.8 3.2 45 5.4 E 9 11 5 6 1017.2 - 0.0
25/08:00pm 14.5 11.6 2.7 45 5.3 E 7 9 4 5 1016.9 - 0.0
25/07:30pm 15.1 12.1 2.3 42 5.7 E 7 9 4 5 1016.6 - 0.0
25/07:00pm 17.5 15.8 1.9 35 7.1 CALM 0 0 0 0 1016.4 - 0.0
25/06:30pm 18.3 16.6 1.8 33 7.5 CALM 0 6 0 3 1016.1 - 0.0
25/06:00pm 19.8 18.2 2.2 31 8.2 CALM 0 6 0 3 1015.9 1015.4 0.0
25/05:30pm 23.1 20.3 2.0 25 10.0 WSW 6 7 3 4 1015.6 - 0.0
25/05:00pm 26.3 23.5 2.9 22 11.6 WSW 7 9 4 5 1015.3 - 0.0
25/04:30pm 28.1 24.8 2.3 19 12.8 WSW 9 13 5 7 1015.0 - 0.0
25/04:00pm 28.4 24.6 1.8 18 13.1 WSW 11 17 6 9 1014.9 - 0.0
25/03:30pm 28.5 24.3 1.9 18 13.1 W 13 20 7 11 1014.8 - 0.0
25/03:00pm 28.7 24.6 2.1 18 13.2 SSW 13 17 7 9 1014.8 1014.3 0.0
25/02:30pm 28.9 24.5 0.6 16 13.7 WSW 13 20 7 11 1015.0 - 0.0
25/02:00pm 28.9 25.3 0.6 16 13.7 WNW 9 17 5 9 1015.2 - 0.0
25/01:30pm 28.2 25.1 0.0 16 13.4 SSW 6 13 3 7 1015.7 - 0.0
25/01:00pm 27.8 23.7 -0.3 16 13.3 W 11 19 6 10 1016.4 - 0.0
25/12:30pm 27.3 23.4 -1.6 15 13.3 WNW 9 15 5 8 1017.0 - 0.0
25/12:00pm 26.4 22.5 -1.4 16 12.7 WSW 9 15 5 8 1017.6 1017.2 0.0
25/11:30am 25.0 21.5 -1.7 17 12.0 S 7 13 4 7 1018.3 - 0.0
25/11:00am 23.9 20.5 -0.4 20 11.1 E 7 13 4 7 1018.7 - 0.0
25/10:30am 22.1 18.3 -0.6 22 10.2 S 9 13 5 7 1019.3 - 0.0
25/10:00am 21.7 18.1 0.8 25 9.6 SSE 9 17 5 9 1019.6 - 0.0
25/09:30am 20.2 16.2 0.6 27 8.9 SSE 11 15 6 8 1019.9 - 0.0
25/09:00am 18.9 14.6 1.0 30 8.0 S 13 19 7 10 1019.8 1019.3 0.0
25/08:30am 17.8 13.8 0.5 31 7.7 SE 11 17 6 9 1019.8 - 0.0
25/08:00am 16.3 12.3 0.4 34 6.9 SSE 11 17 6 9 1019.6 - 0.0
25/07:30am 13.7 11.0 0.4 40 5.7 SSE 4 9 2 5 1019.6 - 0.0
25/07:00am 10.1 6.8 -1.0 46 4.4 ESE 6 7 3 4 1019.1 - 0.0
25/06:30am 10.7 7.4 -1.4 43 4.8 SSE 6 9 3 5 1018.9 - 0.0
25/06:00am 12.1 8.7 -2.1 37 5.6 ESE 6 9 3 5 1018.6 1018.1 0.0
25/05:30am 11.5 7.9 -3.8 34 5.8 SE 6 7 3 4 1018.4 - 0.0
25/05:00am 13.3 9.1 -3.9 30 6.6 SE 9 13 5 7 1018.0 - 0.0
25/04:30am 13.7 9.5 -3.5 30 6.7 SSE 9 13 5 7 1018.1 - 0.0
25/04:00am 13.4 9.3 -3.4 31 6.5 SSE 9 13 5 7 1017.9 - 0.0
25/03:30am 13.3 9.7 -3.4 31 6.5 SSE 6 11 3 6 1018.1 - 0.0
25/03:00am 14.0 10.3 -3.3 30 6.8 SE 7 11 4 6 1017.9 1017.4 0.0
25/02:30am 14.4 10.6 -3.4 29 7.0 SSE 7 9 4 5 1018.3 - 0.0
25/02:00am 14.7 11.1 -2.2 31 6.9 SSE 7 11 4 6 1018.5 - 0.0
25/01:30am 15.3 11.6 -2.6 29 7.2 SE 7 11 4 6 1018.6 - 0.0
25/01:00am 15.6 12.0 -2.3 29 7.3 SE 7 11 4 6 1018.7 - 0.0
25/12:30am 15.8 12.3 -1.7 30 7.3 ESE 7 9 4 5 1018.9 - 0.0
25/12:00am 16.8 12.9 -1.8 28 7.7 ESE 9 13 5 7 1018.8 1018.3 0.0
 
Date/Time
EST
Temp
°C
App
Temp
°C
Dew
Point
Rel
Hum
%
Delta-T
°C
Wind Press
QNH
hPa
Press
MSL
hPa
Rain
since 9 am
mm
Dir
 
Spd
km/h
Gust
km/h
Spd
kts
Gust
kts
24/11:30pm 16.0 12.3 -0.2 33 6.9 E 9 15 5 8 1019.1 - 0.0
24/11:00pm 17.7 13.9 -1.0 28 8.0 ESE 9 13 5 7 1019.3 - 0.0
24/10:30pm 17.5 13.7 1.5 34 7.2 E 11 17 6 9 1019.1 - 0.0
24/10:00pm 17.8 14.6 3.3 38 6.8 E 9 11 5 6 1019.0 - 0.0
24/09:30pm 15.9 13.4 4.6 47 5.4 ESE 7 11 4 6 1019.1 - 0.0
24/09:00pm 17.8 16.7 5.1 43 6.2 CALM 0 0 0 0 1018.9 1018.4 0.0
24/08:30pm 18.8 16.6 5.3 41 6.6 ESE 6 7 3 4 1018.6 - 0.0
24/08:00pm 18.7 17.2 5.2 41 6.6 SE 2 6 1 3 1018.7 - 0.0
24/07:30pm 21.1 18.9 5.1 35 8.0 S 6 7 3 4 1018.4 - 0.0
24/07:00pm 21.9 19.2 5.8 35 8.2 SSW 9 13 5 7 1018.1 - 0.0
24/06:30pm 22.1 20.1 6.3 36 8.1 SE 6 9 3 5 1017.5 - 0.0
24/06:00pm 22.9 20.6 5.8 33 8.7 SW 7 13 4 7 1017.3 1016.9 0.0
24/05:30pm 24.7 22.1 6.0 30 9.7 SSW 9 17 5 9 1016.9 - 0.0
24/05:00pm 26.7 23.7 6.2 27 10.8 SSW 11 15 6 8 1016.5 - 0.0
24/04:30pm 27.4 24.2 6.8 27 11.0 SSW 13 20 7 11 1016.3 - 0.0
24/04:00pm 28.1 24.6 7.4 27 11.2 SW 15 20 8 11 1015.9 - 0.0
24/03:30pm 29.2 26.6 7.7 26 11.8 SW 11 20 6 11 1015.6 - 0.0
24/03:00pm 29.7 27.7 8.7 27 11.7 WSW 9 17 5 9 1015.4 1014.9 0.0
24/02:30pm 29.8 26.9 8.2 26 11.9 WSW 13 22 7 12 1015.4 - 0.0
24/02:00pm 29.4 27.5 9.0 28 11.4 SW 9 17 5 9 1015.4 - 0.0
24/01:30pm 29.6 27.7 9.2 28 11.5 S 9 19 5 10 1015.6 - 0.0
24/01:00pm 27.7 25.1 9.5 32 10.2 S 13 19 7 10 1015.8 - 0.0
24/12:30pm 28.9 27.7 11.5 34 10.1 SSW 9 15 5 8 1016.5 - 0.0
24/12:00pm 28.1 26.9 12.8 38 9.0 S 11 17 6 9 1017.0 1016.6 0.0
24/11:30am 27.0 26.1 13.7 44 7.9 SSE 11 17 6 9 1017.6 - 0.0
24/11:00am 26.2 25.8 14.0 47 7.3 SSE 9 13 5 7 1018.3 - 0.0
24/10:30am 25.2 24.8 14.0 49 6.7 SE 9 15 5 8 1018.9 - 0.0
24/10:00am 24.2 23.9 14.3 54 5.9 S 9 13 5 7 1019.4 - 0.0
24/09:30am 23.7 24.0 14.4 56 5.5 E 6 9 3 5 1019.5 - 0.0
24/09:00am 21.6 22.1 14.0 62 4.4 SSE 4 7 2 4 1019.8 1019.3 0.0
24/08:30am 21.1 21.3 14.7 67 3.8 ESE 7 9 4 5 1019.5 - 0.0
24/08:00am 18.6 18.6 14.1 75 2.6 ESE 7 9 4 5 1019.2 - 0.0
24/07:30am 17.7 19.0 14.0 79 2.1 CALM 0 0 0 0 1019.0 - 0.0
24/07:00am 16.8 17.8 13.1 79 2.1 CALM 0 4 0 2 1018.7 - 0.0
24/06:30am 17.0 18.0 13.3 79 2.1 CALM 0 0 0 0 1018.7 - 0.0
24/06:00am 17.0 17.2 12.9 77 2.3 SE 4 6 2 3 1018.3 1017.8 0.0
24/05:30am 17.0 16.6 13.1 78 2.2 E 7 7 4 4 1018.0 - 0.0
24/05:00am 17.0 16.6 13.1 78 2.2 E 7 9 4 5 1017.7 - 0.0
24/04:30am 16.8 17.7 12.9 78 2.2 CALM 0 0 0 0 1017.9 - 0.0
24/04:00am 17.1 18.0 13.0 77 2.3 CALM 0 0 0 0 1018.0 - 0.0
24/03:30am 17.4 18.5 13.5 78 2.2 CALM 0 0 0 0 1018.1 - 0.0
24/03:00am 17.4 18.4 13.1 76 2.4 CALM 0 0 0 0 1018.3 1017.8 0.0
24/02:30am 17.8 18.8 13.3 75 2.6 CALM 0 0 0 0 1018.1 - 0.0
24/02:00am 17.9 18.9 13.2 74 2.7 CALM 0 0 0 0 1018.3 - 0.0
24/01:30am 18.1 18.8 13.4 74 2.7 SSE 2 6 1 3 1018.4 - 0.0
24/01:00am 18.4 19.6 13.9 75 2.6 CALM 0 0 0 0 1018.6 - 0.0
24/12:30am 18.3 19.4 13.6 74 2.7 CALM 0 0 0 0 1019.0 - 0.0
24/12:00am 18.3 19.3 13.2 72 2.9 CALM 0 0 0 0 1019.1 1018.6 0.0
 
Date/Time
EST
Temp
°C
App
Temp
°C
Dew
Point
Rel
Hum
%
Delta-T
°C
Wind Press
QNH
hPa
Press
MSL
hPa
Rain
since 9 am
mm
Dir
 
Spd
km/h
Gust
km/h
Spd
kts
Gust
kts
23/11:30pm 18.7 19.6 12.9 69 3.3 CALM 0 0 0 0 1019.3 - 0.0
23/11:00pm 19.0 20.0 13.2 69 3.3 CALM 0 0 0 0 1019.2 - 0.0
23/10:30pm 19.2 20.3 13.6 70 3.2 CALM 0 0 0 0 1019.1 - 0.0
23/10:00pm 20.3 21.6 14.2 68 3.6 CALM 0 0 0 0 1019.1 - 0.0
23/09:30pm 20.5 21.3 13.7 65 3.9 SSE 2 6 1 3 1019.2 - 0.0
23/09:00pm 21.4 22.3 14.1 63 4.3 S 2 7 1 4 1019.1 1018.6 0.0
23/08:30pm 22.0 21.6 14.1 61 4.6 NE 9 13 5 7 1018.9 - 0.0
23/08:00pm 22.4 21.6 14.0 59 4.9 NNE 11 19 6 10 1018.9 - 0.0
23/07:30pm 23.3 22.0 13.8 55 5.6 NE 13 19 7 10 1018.7 - 0.0
23/07:00pm 22.3 21.9 11.1 49 6.3 SE 4 17 2 9 1018.3 - 0.0
23/06:30pm 23.3 23.5 10.7 45 7.0 CALM 0 0 0 0 1018.1 - 0.0
23/06:00pm 24.9 24.1 11.1 42 7.8 S 6 9 3 5 1017.7 1017.3 0.0
23/05:30pm 25.1 24.4 11.3 42 7.9 W 6 9 3 5 1017.4 - 0.0
23/05:00pm 26.3 24.6 11.2 38 8.6 NW 11 17 6 9 1016.9 - 0.0
23/04:30pm 27.1 25.3 10.7 35 9.3 WNW 11 22 6 12 1016.6 - 0.0
23/04:00pm 27.5 25.5 10.2 34 9.8 NW 11 17 6 9 1016.3 - 0.0
23/03:30pm 28.2 27.8 9.9 32 10.3 SSW 2 9 1 5 1016.2 - 0.0
23/03:00pm 28.4 26.8 10.1 32 10.4 SSE 9 20 5 11 1016.1 1015.6 0.0
23/02:30pm 28.0 26.5 10.7 34 9.9 N 9 15 5 8 1016.4 - 0.0
23/02:00pm 28.7 28.0 11.3 34 10.1 WNW 6 9 3 5 1016.6 - 0.0
23/01:30pm 27.5 26.8 11.5 37 9.2 E 6 11 3 6 1017.0 - 0.0
23/01:00pm 27.0 26.2 11.1 37 9.1 NNE 6 11 3 6 1017.5 - 0.0
23/12:30pm 26.7 25.9 11.6 39 8.7 S 7 15 4 8 1018.2 - 0.0
23/12:00pm 26.7 25.5 11.6 39 8.7 E 9 17 5 9 1019.0 1018.5 0.0
23/11:30am 25.8 24.7 11.9 42 8.0 SSW 9 15 5 8 1019.7 - 0.0
23/11:00am 25.2 24.7 12.1 44 7.6 NNW 6 9 3 5 1020.3 - 0.0

Other Formats:

Comma delimited format used in spreadsheet applications
http://www.bom.gov.au/fwo/IDQ60801/IDQ60801.94376.axf

JavaScript Object Notation format (JSON) in row-major order
http://www.bom.gov.au/fwo/IDQ60801/IDQ60801.94376.json